ADDS METAR Data INFO
IDs: Format: Raw Decoded Include TAF

Data at: 0403 UTC 11 Dec 2017

KLGA 110351Z 24009KT 10SM FEW050 SCT090 OVC110 03/M07 A3001 RMK AO2 SLP163 T00281067 $
KLGA 110251Z 24012KT 10SM FEW050 OVC150 03/M07 A3001 RMK AO2 SLP161 T00281067 51007 $
KLGA 110151Z 24011G19KT 10SM FEW046 BKN150 03/M06 A3001 RMK AO2 SLP160 T00281056 $
KLGA 110051Z 22011KT 10SM SCT046 BKN150 03/M06 A3000 RMK AO2 SLP159 T00281056 $
KLGA 102351Z 23011KT 10SM SCT055 03/M07 A2999 RMK AO2 SLP155 4/002 T00331067 10044 20033 51015 $
KLGA 102251Z 26014G24KT 10SM FEW040 SCT060 03/M06 A2998 RMK AO2 SLP153 T00331061 $
KLGA 102151Z 26008G27KT 10SM BKN055 04/M06 A2996 RMK AO2 PK WND 29027/2146 SLP145 T00391056 $
KLGA 102051Z 25013G20KT 10SM BKN055 04/M06 A2995 RMK AO2 SLP140 T00391056 53012 $
KLGA 101951Z 26016G20KT 10SM BKN050 04/M06 A2992 RMK AO2 SLP132 T00441056 $
KLGA 101851Z 27012KT 10SM FEW039 04/M04 A2991 RMK AO2 SLP127 T00441044 $
KLGA 101751Z 26010KT 10SM FEW038 04/M05 A2991 RMK AO2 SLP127 4/003 933002 T00391050 10039 20000 56004 $
KLGA 101651Z 26013KT 10SM FEW033 03/M04 A2991 RMK AO2 SLP129 T00331044 $
KLGA 101551Z 26010G17KT 10SM CLR 03/M05 A2991 RMK AO2 SLP129 T00281050 $
KLGA 101451Z 26012G22KT 10SM FEW090 FEW160 01/M06 A2992 RMK AO2 SLP132 T00111061 51023 $
KLGA 101351Z 25012KT 10SM FEW031 FEW090 FEW160 01/M07 A2990 RMK AO2 SLP126 T00061072 $
KLGA 101251Z 28010KT 10SM FEW024 SCT090 BKN160 00/M06 A2988 RMK AO2 SLP119 ACSL SE-S AND NW-N T00001061 $
KLGA 101151Z 30013G20KT 10SM FEW024 BKN090 BKN160 00/M06 A2985 RMK AO2 SLP108 4/004 70034 T00001061 10011 20000 53034 $
KLGA 101051Z 30014G20KT 10SM FEW100 BKN150 00/M06 A2981 RMK AO2 SLP093 T00001056 $
KLGA 100951Z 29012KT 10SM FEW050 SCT100 01/M04 A2977 RMK AO2 SLP081 T00061044 $
KLGA 100851Z 29013KT 10SM FEW049 SCT100 01/M04 A2975 RMK AO2 SLP074 T00061039 51011 $
KLGA 100751Z 28010KT 10SM BKN049 BKN090 01/M02 A2975 RMK AO2 SLP073 T00111022 $
KLGA 100651Z 30009KT 10SM FEW015 BKN060 BKN080 OVC130 01/M02 A2973 RMK AO2 SLP065 T00061017 $
KLGA 100551Z 31006KT 10SM FEW030 BKN090 OVC120 01/M02 A2972 RMK AO2 SLP063 931002 4/004 60003 T00061017 10006 20006 56003 $
KLGA 100451Z 32011KT 10SM FEW010 SCT029 OVC075 01/M02 A2972 RMK AO2 SLP064 T00061017 400281006 $
KLGA 100435Z 34009KT 10SM SCT029 OVC070 01/M02 A2971 RMK AO2 T00061017 $
KLGA 100413Z 32013KT 10SM BKN028 OVC060 01/M02 A2972 RMK AO2 T00061017 $
KLGA 100351Z 34009KT 6SM BR SCT010 BKN044 OVC060 01/M01 A2972 RMK AO2 SNE45 SLP065 P0000 T00061011 $
KLGA 100338Z 33011KT 6SM -SN BR SCT010 BKN044 OVC060 01/M01 A2972 RMK AO2 P0000 T00061011 $
KLGA 100250Z 33010KT 2 1/2SM -SN BR BKN010 BKN017 OVC022 01/M01 A2973 RMK AO2 SLP066 P0000 60003 T00061011 53002 $
KLGA 100249Z 32011KT 2 1/2SM -SN BR BKN010 BKN017 OVC022 01/M01 A2973 RMK AO2 P0000 $
KLGA 100151Z 35007KT 4SM -SN BR BKN009 OVC014 01/M01 A2972 RMK AO2 SLP062 P0002 T00061011 $
KLGA 100123Z 33008KT 3SM -SN BR BKN009 BKN014 OVC022 01/M01 A2972 RMK AO2 VIS 2 1/2 R22 SW P0001 T00061006 $
KLGA 100051Z 32008KT 5SM -SN BR FEW007 BKN011 OVC022 01/M01 A2972 RMK AO2 SLP065 P0001 T00061006 $
KLGA 100047Z 33008KT 2SM -SN BR BKN011 OVC020 01/M01 A2972 RMK AO2 SFC VIS 5 P0001 $
KLGA 092351Z 34009KT 2SM -SN BR SCT011 OVC019 01/M01 A2972 RMK AO2 SFC VIS 4 SLP064 931030 4/004 P0001 60020 T00061011 10006 20000 55004 $
KLGA 092251Z 36010KT 2SM -SN BR SCT009 BKN014 OVC020 01/M01 A2972 RMK AO2 SFC VIS 3 SLP062 SNINCR 1/4 P0002 T00061011 $
KLGA 092240Z 36011KT 2SM -SN BR SCT009 BKN014 OVC021 01/M01 A2972 RMK AO2 SFC VIS 2 1/2 VIS 1 3/4 R22 SW P0002 T00061011 $
KLGA 092151Z 36011KT 3/4SM R04/P6000FT -SN BR SCT007 BKN015 OVC023 00/M01 A2974 RMK AO2 SFC VIS 3 SLP069 P0002 T00001011 $
KLGA 092149Z 35011KT 3/4SM R04/P6000FT -SN BR SCT007 BKN015 OVC023 00/M01 A2974 RMK AO2 SFC VIS 3 CIG 009 R22 SW P0002 $
KLGA 092129Z 36011KT 1/2SM R04/P6000FT -SN BR SCT006 BKN013 OVC021 00/M01 A2974 RMK AO2 SFC VIS 3 P0002 T00001011 $
KLGA 092051Z 36010KT 1/2SM R04/4000V5000FT -SN BR BKN006 OVC011 00/M01 A2973 RMK AO2 SFC VIS 1 PRESFR SLP069 SNINCR 1/3 P0006 60015 T00001011 56032 $
KLGA 092047Z 35010KT 1/2SM R04/4000V5000FT -SN BR BKN006 OVC011 00/M01 A2975 RMK AO2 SFC VIS 1 P0005 $
KLGA 091951Z 36008KT 1/2SM R04/P6000FT -SN BR SCT008 OVC022 01/M01 A2977 RMK AO2 SFC VIS 1 3/4 CIG 011 R22 SW SLP079 P0003 T00061011 $
KLGA 091943Z 02011KT 1/2SM R04/P6000FT -SN BR SCT006 OVC022 01/M01 A2976 RMK AO2 SFC VIS 1 3/4 CIG 007 R22 SW P0003 T00061011 $
KLGA 091938Z 01007KT 1/2SM R04/P6000FT -SN BR BKN007 OVC018 01/M01 A2977 RMK AO2 SFC VIS 1 1/2 P0003 T00061006 $
KLGA 091851Z 36007KT 1/2SM R04/3500V5000FT -SN BR BKN005 OVC009 00/M01 A2979 RMK AO2 SFC VIS 3/4 SLP086 SNINCR 1/2 P0006 T00001011 $
KLGA 091800Z 36006KT 1SM R04/3500V4500FT -SN BR BKN005 OVC011 00/M01 A2983 RMK AO2 P0001 T00001011
KLGA 091751Z 01005KT 1SM R04/3500V4500FT -SN BR SCT006 OVC011 00/M02 A2983 RMK AO2 CIG 004 R22 SW SLP101 931014 4/001 P0005 60011 T00001017 10022 21006 58038
KLGA 091651Z 02005KT 3/4SM R04/3000V3500FT -SN BR BKN006 OVC012 00/M02 A2987 RMK AO2 SLP115 SNINCR 1/1 P0004 T00001017
KLGA 091634Z VRB06KT 3/4SM R04/3500V4500FT -SN BR SCT006 OVC013 M01/M02 A2989 RMK AO2 P0002 T10061022
KLGA 091618Z 01004KT 3/4SM R04/3500V5500FT -SN BR FEW006 OVC015 M01/M02 A2990 RMK AO2 P0001 T10061022
KLGA 091615Z 02005KT 3/4SM R04/4000V5500FT -SN BR VV015 M01/M02 A2990 RMK AO2 P0001 T10061022